Sussex, NJ

10:02 PM EST on December 03, 2016 (GMT -0500)
| | Change Station

Elev -9999 ft 0.00 °N, 0.00 °E | Updated

Overcast
Overcast
°F
Feels Like °F
N
Wind Variable Wind from North
Gusts mph

Today
High -- | Low -- °F
--% Chance of Precip.
Yesterday
High -- | Low -- °F
Precip. -- in
Pressure 30.16 in
Visibility 10.0 miles
Clouds Overcast 4000 ft
Dew Point Not available.
Humidity Not available.
Rainfall --
Snow Depth Not available.
7:07 AM 4:29 PM
Waxing Crescent, 19% visible
METAR KFWN 040253Z AUTO 34007G16KT 10SM OVC040 04/M03 A3015 RMK AO2 RAB11E20 SLP211 P0000 60000 T00441028 53007
Pressure 30.16 in
Visibility 10.0 miles
Clouds Overcast 4000 ft
Dew Point Not available.
Humidity Not available.
Rainfall --
Snow Depth Not available.
7:07 AM 4:29 PM
Waxing Crescent, 19% visible
METAR KFWN 040253Z AUTO 34007G16KT 10SM OVC040 04/M03 A3015 RMK AO2 RAB11E20 SLP211 P0000 60000 T00441028 53007

10-Day Weather Forecast

Almanac

Astronomy

Dec. 03, 2016 Rise Set
Actual Time
Civil Twilight
Nautical Twilight
Astronomical Twilight
Moon
Length of Visible Light
Length of Day
Tomorrow will be .
, % of the Moon is Illuminated

Today's Extremes

State Highs State Lows

Community

WunderPhotos

Upload Photos

1,955,560 photos uploaded!

WunderBlog® & News

Nearby

Air Quality

  Air Quality AQ Index Pollutant
Not available.

Snow Depth

Station Depth Elevation

Earthquake Activity

City Distance Mag. Time & Date
Minimum magnitude displayed is 2.5.

Coastal Water Temperatures

Place Temperature

Stations

Nearby Weather Stations

Station Location Temp. Windchill Dew Point Humidity Wind Precip. Elev Updated Type
                   

Watches & Warnings

There are currently no watches in effect.